sensor_id;sensor_type;location;lat;lon;timestamp;pressure;altitude;pressure_sealevel;temperature;humidity
19751;BME280;4663;49.120;9.730;2023-05-09T00:00:36;98380.94;;;14.10;100.00
19751;BME280;4663;49.120;9.730;2023-05-09T00:03:02;98372.63;;;14.20;100.00
19751;BME280;4663;49.120;9.730;2023-05-09T00:05:30;98363.84;;;14.26;98.97
19751;BME280;4663;49.120;9.730;2023-05-09T00:07:55;98361.72;;;14.45;98.59
19751;BME280;4663;49.120;9.730;2023-05-09T00:10:21;98365.94;;;14.39;98.27
19751;BME280;4663;49.120;9.730;2023-05-09T00:12:46;98372.06;;;14.33;99.78
19751;BME280;4663;49.120;9.730;2023-05-09T00:15:13;98370.88;;;14.35;99.65
19751;BME280;4663;49.120;9.730;2023-05-09T00:17:39;98357.03;;;14.38;99.13
19751;BME280;4663;49.120;9.730;2023-05-09T00:20:07;98355.75;;;14.26;98.94
19751;BME280;4663;49.120;9.730;2023-05-09T00:22:35;98353.75;;;14.20;98.86
19751;BME280;4663;49.120;9.730;2023-05-09T00:25:01;98350.75;;;14.15;98.93
19751;BME280;4663;49.120;9.730;2023-05-09T00:27:26;98351.13;;;14.35;97.88
19751;BME280;4663;49.120;9.730;2023-05-09T00:29:54;98352.06;;;14.19;99.09
19751;BME280;4663;49.120;9.730;2023-05-09T00:32:20;98358.41;;;14.34;98.97
19751;BME280;4663;49.120;9.730;2023-05-09T00:34:45;98356.34;;;14.36;98.88
19751;BME280;4663;49.120;9.730;2023-05-09T00:37:10;98348.94;;;14.38;98.59
19751;BME280;4663;49.120;9.730;2023-05-09T00:39:36;98352.44;;;14.07;99.47
19751;BME280;4663;49.120;9.730;2023-05-09T00:42:01;98341.53;;;14.32;98.52
19751;BME280;4663;49.120;9.730;2023-05-09T00:44:27;98339.88;;;14.31;98.49
19751;BME280;4663;49.120;9.730;2023-05-09T00:46:53;98338.78;;;14.09;99.48
19751;BME280;4663;49.120;9.730;2023-05-09T00:49:19;98334.25;;;13.93;100.00
19751;BME280;4663;49.120;9.730;2023-05-09T00:51:44;98328.66;;;14.11;99.99
19751;BME280;4663;49.120;9.730;2023-05-09T00:54:11;98321.25;;;14.13;98.59
19751;BME280;4663;49.120;9.730;2023-05-09T00:56:36;98315.00;;;14.12;97.62
19751;BME280;4663;49.120;9.730;2023-05-09T00:59:02;98314.00;;;14.13;98.06
19751;BME280;4663;49.120;9.730;2023-05-09T01:01:27;98314.81;;;14.14;97.14
19751;BME280;4663;49.120;9.730;2023-05-09T01:03:53;98318.59;;;13.96;98.29
19751;BME280;4663;49.120;9.730;2023-05-09T01:09:50;98307.50;;;13.83;98.48
19751;BME280;4663;49.120;9.730;2023-05-09T01:15:11;98290.72;;;14.04;97.56
19751;BME280;4663;49.120;9.730;2023-05-09T01:17:58;98286.38;;;14.03;97.80
19751;BME280;4663;49.120;9.730;2023-05-09T01:23:09;98288.22;;;14.03;97.25
19751;BME280;4663;49.120;9.730;2023-05-09T01:25:48;98296.69;;;13.91;97.88
19751;BME280;4663;49.120;9.730;2023-05-09T01:30:50;98286.88;;;13.58;100.00
19751;BME280;4663;49.120;9.730;2023-05-09T01:33:18;98290.56;;;13.66;99.21
19751;BME280;4663;49.120;9.730;2023-05-09T01:35:48;98288.38;;;13.61;99.43
19751;BME280;4663;49.120;9.730;2023-05-09T01:38:17;98280.81;;;13.56;99.67
19751;BME280;4663;49.120;9.730;2023-05-09T01:40:46;98283.00;;;13.61;98.87
19751;BME280;4663;49.120;9.730;2023-05-09T01:43:13;98290.69;;;13.81;98.17
19751;BME280;4663;49.120;9.730;2023-05-09T01:45:41;98294.78;;;13.60;98.94
19751;BME280;4663;49.120;9.730;2023-05-09T01:48:08;98298.16;;;13.62;99.42
19751;BME280;4663;49.120;9.730;2023-05-09T01:50:35;98291.88;;;13.78;98.41
19751;BME280;4663;49.120;9.730;2023-05-09T01:53:03;98300.44;;;13.82;98.19
19751;BME280;4663;49.120;9.730;2023-05-09T01:55:32;98300.28;;;13.83;97.86
19751;BME280;4663;49.120;9.730;2023-05-09T01:57:59;98294.53;;;13.86;97.73
19751;BME280;4663;49.120;9.730;2023-05-09T02:00:26;98301.81;;;13.78;97.78
19751;BME280;4663;49.120;9.730;2023-05-09T02:02:52;98298.34;;;13.52;99.46
19751;BME280;4663;49.120;9.730;2023-05-09T02:05:17;98288.00;;;13.72;98.91
19751;BME280;4663;49.120;9.730;2023-05-09T02:07:45;98291.69;;;13.80;98.30
19751;BME280;4663;49.120;9.730;2023-05-09T02:10:12;98287.44;;;13.85;97.87
19751;BME280;4663;49.120;9.730;2023-05-09T02:12:38;98294.03;;;13.83;97.74
19751;BME280;4663;49.120;9.730;2023-05-09T02:15:04;98285.28;;;13.81;97.51
19751;BME280;4663;49.120;9.730;2023-05-09T02:17:30;98283.75;;;13.86;97.53
19751;BME280;4663;49.120;9.730;2023-05-09T02:19:56;98283.03;;;13.93;97.23
19751;BME280;4663;49.120;9.730;2023-05-09T02:22:22;98292.94;;;13.60;97.94
19751;BME280;4663;49.120;9.730;2023-05-09T02:24:47;98294.09;;;13.66;98.42
19751;BME280;4663;49.120;9.730;2023-05-09T02:27:13;98286.81;;;13.75;98.36
19751;BME280;4663;49.120;9.730;2023-05-09T02:29:45;98293.03;;;13.84;98.02
19751;BME280;4663;49.120;9.730;2023-05-09T02:32:14;98295.91;;;13.82;97.91
19751;BME280;4663;49.120;9.730;2023-05-09T02:34:41;98293.69;;;13.86;97.66
19751;BME280;4663;49.120;9.730;2023-05-09T02:37:08;98287.81;;;13.82;97.40
19751;BME280;4663;49.120;9.730;2023-05-09T02:39:34;98281.19;;;13.93;97.39
19751;BME280;4663;49.120;9.730;2023-05-09T02:42:09;98288.59;;;13.91;97.51
19751;BME280;4663;49.120;9.730;2023-05-09T02:44:35;98282.75;;;13.79;97.09
19751;BME280;4663;49.120;9.730;2023-05-09T02:47:01;98280.03;;;13.87;97.28
19751;BME280;4663;49.120;9.730;2023-05-09T02:49:27;98276.38;;;13.72;97.77
19751;BME280;4663;49.120;9.730;2023-05-09T02:51:53;98282.34;;;13.51;99.27
19751;BME280;4663;49.120;9.730;2023-05-09T02:54:18;98287.72;;;13.51;99.23
19751;BME280;4663;49.120;9.730;2023-05-09T02:56:43;98280.63;;;13.58;98.79
19751;BME280;4663;49.120;9.730;2023-05-09T02:59:09;98276.38;;;13.72;98.03
19751;BME280;4663;49.120;9.730;2023-05-09T03:01:34;98268.25;;;13.80;97.61
19751;BME280;4663;49.120;9.730;2023-05-09T03:04:00;98267.56;;;13.86;97.18
19751;BME280;4663;49.120;9.730;2023-05-09T03:06:25;98256.16;;;13.76;97.19
19751;BME280;4663;49.120;9.730;2023-05-09T03:08:50;98265.94;;;13.69;97.32
19751;BME280;4663;49.120;9.730;2023-05-09T03:11:16;98271.69;;;13.66;98.07
19751;BME280;4663;49.120;9.730;2023-05-09T03:13:41;98266.47;;;13.64;98.08
19751;BME280;4663;49.120;9.730;2023-05-09T03:16:06;98273.69;;;13.72;97.59
19751;BME280;4663;49.120;9.730;2023-05-09T03:18:32;98274.84;;;13.78;97.41
19751;BME280;4663;49.120;9.730;2023-05-09T03:20:57;98263.22;;;13.77;97.10
19751;BME280;4663;49.120;9.730;2023-05-09T03:23:22;98262.94;;;13.64;98.27
19751;BME280;4663;49.120;9.730;2023-05-09T03:25:48;98258.00;;;13.27;99.56
19751;BME280;4663;49.120;9.730;2023-05-09T03:28:13;98265.06;;;13.28;100.00
19751;BME280;4663;49.120;9.730;2023-05-09T03:30:38;98258.84;;;13.11;100.00
19751;BME280;4663;49.120;9.730;2023-05-09T03:33:04;98260.03;;;12.92;100.00
19751;BME280;4663;49.120;9.730;2023-05-09T03:35:30;98253.16;;;13.06;100.00
19751;BME280;4663;49.120;9.730;2023-05-09T03:37:55;98261.41;;;13.04;100.00
19751;BME280;4663;49.120;9.730;2023-05-09T03:40:21;98261.38;;;12.79;100.00
19751;BME280;4663;49.120;9.730;2023-05-09T03:42:46;98259.72;;;12.78;100.00
19751;BME280;4663;49.120;9.730;2023-05-09T03:45:12;98255.00;;;12.97;98.45
19751;BME280;4663;49.120;9.730;2023-05-09T03:47:37;98257.00;;;13.12;98.55
19751;BME280;4663;49.120;9.730;2023-05-09T03:50:03;98249.78;;;12.79;98.40
19751;BME280;4663;49.120;9.730;2023-05-09T03:52:28;98238.66;;;13.07;97.31
19751;BME280;4663;49.120;9.730;2023-05-09T03:54:54;98239.16;;;12.77;96.27
19751;BME280;4663;49.120;9.730;2023-05-09T03:57:19;98233.63;;;13.04;97.32
19751;BME280;4663;49.120;9.730;2023-05-09T03:59:44;98241.19;;;12.83;98.22
19751;BME280;4663;49.120;9.730;2023-05-09T04:02:10;98243.38;;;12.80;98.12
19751;BME280;4663;49.120;9.730;2023-05-09T04:04:35;98241.03;;;13.10;96.11
19751;BME280;4663;49.120;9.730;2023-05-09T04:07:01;98237.47;;;13.09;95.49
19751;BME280;4663;49.120;9.730;2023-05-09T04:09:26;98240.88;;;13.03;97.09
19751;BME280;4663;49.120;9.730;2023-05-09T04:11:53;98243.03;;;12.91;97.62
19751;BME280;4663;49.120;9.730;2023-05-09T04:14:18;98240.34;;;12.91;96.93
19751;BME280;4663;49.120;9.730;2023-05-09T04:16:43;98248.41;;;13.08;97.34
19751;BME280;4663;49.120;9.730;2023-05-09T04:19:09;98252.91;;;13.32;96.59
19751;BME280;4663;49.120;9.730;2023-05-09T04:21:34;98254.00;;;12.98;98.13
19751;BME280;4663;49.120;9.730;2023-05-09T04:23:59;98254.16;;;13.13;97.52
19751;BME280;4663;49.120;9.730;2023-05-09T04:26:25;98250.59;;;13.13;97.21
19751;BME280;4663;49.120;9.730;2023-05-09T04:28:50;98252.22;;;13.47;96.90
19751;BME280;4663;49.120;9.730;2023-05-09T04:31:17;98254.44;;;13.35;96.85
19751;BME280;4663;49.120;9.730;2023-05-09T04:33:43;98247.25;;;13.10;96.81
19751;BME280;4663;49.120;9.730;2023-05-09T04:36:09;98244.88;;;13.16;96.95
19751;BME280;4663;49.120;9.730;2023-05-09T04:38:34;98250.28;;;13.07;97.35
19751;BME280;4663;49.120;9.730;2023-05-09T04:41:00;98238.94;;;13.37;96.49
19751;BME280;4663;49.120;9.730;2023-05-09T04:43:25;98243.09;;;13.56;96.20
19751;BME280;4663;49.120;9.730;2023-05-09T04:45:52;98244.50;;;13.35;95.30
19751;BME280;4663;49.120;9.730;2023-05-09T04:48:17;98244.09;;;13.55;96.27
19751;BME280;4663;49.120;9.730;2023-05-09T04:50:43;98238.75;;;13.47;95.69
19751;BME280;4663;49.120;9.730;2023-05-09T04:53:08;98235.97;;;13.64;95.39
19751;BME280;4663;49.120;9.730;2023-05-09T04:55:35;98243.50;;;13.28;96.18
19751;BME280;4663;49.120;9.730;2023-05-09T04:58:00;98258.34;;;13.24;97.45
19751;BME280;4663;49.120;9.730;2023-05-09T05:00:26;98251.56;;;13.36;97.13
19751;BME280;4663;49.120;9.730;2023-05-09T05:02:51;98262.34;;;13.36;97.34
19751;BME280;4663;49.120;9.730;2023-05-09T05:05:17;98261.78;;;13.58;97.79
19751;BME280;4663;49.120;9.730;2023-05-09T05:07:42;98246.56;;;13.73;96.64
19751;BME280;4663;49.120;9.730;2023-05-09T05:10:08;98245.16;;;13.86;95.44
19751;BME280;4663;49.120;9.730;2023-05-09T05:12:34;98249.00;;;13.92;94.80
19751;BME280;4663;49.120;9.730;2023-05-09T05:14:59;98247.19;;;13.84;94.76
19751;BME280;4663;49.120;9.730;2023-05-09T05:17:24;98251.00;;;13.98;94.67
19751;BME280;4663;49.120;9.730;2023-05-09T05:19:50;98251.72;;;13.83;95.73
19751;BME280;4663;49.120;9.730;2023-05-09T05:22:15;98260.03;;;13.73;95.96
19751;BME280;4663;49.120;9.730;2023-05-09T05:24:41;98261.28;;;13.94;94.79
19751;BME280;4663;49.120;9.730;2023-05-09T05:27:06;98250.94;;;14.15;93.73
19751;BME280;4663;49.120;9.730;2023-05-09T05:29:31;98245.84;;;14.20;92.79
19751;BME280;4663;49.120;9.730;2023-05-09T05:31:57;98247.66;;;14.28;93.30
19751;BME280;4663;49.120;9.730;2023-05-09T05:34:22;98245.00;;;14.43;93.38
19751;BME280;4663;49.120;9.730;2023-05-09T05:36:47;98241.28;;;14.44;90.87
19751;BME280;4663;49.120;9.730;2023-05-09T05:39:13;98236.50;;;14.54;90.65
19751;BME280;4663;49.120;9.730;2023-05-09T05:41:38;98240.84;;;14.78;90.67
19751;BME280;4663;49.120;9.730;2023-05-09T05:44:04;98240.31;;;14.83;89.16
19751;BME280;4663;49.120;9.730;2023-05-09T05:46:29;98238.78;;;14.65;88.68
19751;BME280;4663;49.120;9.730;2023-05-09T05:48:54;98227.06;;;15.12;86.56
19751;BME280;4663;49.120;9.730;2023-05-09T05:51:20;98236.91;;;16.10;85.62
19751;BME280;4663;49.120;9.730;2023-05-09T05:53:46;98223.66;;;16.37;78.23
19751;BME280;4663;49.120;9.730;2023-05-09T05:56:11;98224.88;;;17.07;78.38
19751;BME280;4663;49.120;9.730;2023-05-09T05:58:36;98208.94;;;17.26;73.49
19751;BME280;4663;49.120;9.730;2023-05-09T06:01:02;98212.88;;;18.01;74.34
19751;BME280;4663;49.120;9.730;2023-05-09T06:03:27;98213.94;;;18.13;72.21
19751;BME280;4663;49.120;9.730;2023-05-09T06:05:53;98206.28;;;18.57;71.55
19751;BME280;4663;49.120;9.730;2023-05-09T06:08:19;98211.66;;;19.45;74.77
19751;BME280;4663;49.120;9.730;2023-05-09T06:10:45;98204.81;;;19.29;68.84
19751;BME280;4663;49.120;9.730;2023-05-09T06:13:10;98208.41;;;19.82;69.03
19751;BME280;4663;49.120;9.730;2023-05-09T06:15:35;98214.53;;;20.16;68.22
19751;BME280;4663;49.120;9.730;2023-05-09T06:18:01;98203.88;;;20.47;66.97
19751;BME280;4663;49.120;9.730;2023-05-09T06:20:26;98212.38;;;21.08;68.61
19751;BME280;4663;49.120;9.730;2023-05-09T06:22:52;98184.44;;;20.04;63.39
19751;BME280;4663;49.120;9.730;2023-05-09T06:25:18;98184.66;;;19.44;64.98
19751;BME280;4663;49.120;9.730;2023-05-09T06:27:44;98175.53;;;19.24;63.60
19751;BME280;4663;49.120;9.730;2023-05-09T06:30:10;98156.88;;;19.87;62.52
19751;BME280;4663;49.120;9.730;2023-05-09T06:32:35;98189.06;;;19.97;68.63
19751;BME280;4663;49.120;9.730;2023-05-09T06:35:00;98165.59;;;20.42;63.26
19751;BME280;4663;49.120;9.730;2023-05-09T06:37:26;98162.06;;;19.50;62.05
19751;BME280;4663;49.120;9.730;2023-05-09T06:39:51;98172.72;;;20.04;65.57
19751;BME280;4663;49.120;9.730;2023-05-09T06:42:16;98174.66;;;20.29;63.63
19751;BME280;4663;49.120;9.730;2023-05-09T06:44:42;98182.31;;;21.22;63.75
19751;BME280;4663;49.120;9.730;2023-05-09T06:47:09;98178.47;;;21.98;63.90
19751;BME280;4663;49.120;9.730;2023-05-09T06:49:35;98175.03;;;22.45;62.92
19751;BME280;4663;49.120;9.730;2023-05-09T06:52:00;98129.84;;;22.19;58.51
19751;BME280;4663;49.120;9.730;2023-05-09T06:54:25;98138.84;;;20.58;59.82
19751;BME280;4663;49.120;9.730;2023-05-09T06:56:51;98165.75;;;21.73;63.05
19751;BME280;4663;49.120;9.730;2023-05-09T06:59:16;98150.38;;;22.09;62.73
19751;BME280;4663;49.120;9.730;2023-05-09T07:01:42;98148.25;;;21.62;62.13
19751;BME280;4663;49.120;9.730;2023-05-09T07:04:07;98117.78;;;22.39;59.14
19751;BME280;4663;49.120;9.730;2023-05-09T07:06:32;98140.31;;;22.22;60.47
19751;BME280;4663;49.120;9.730;2023-05-09T07:08:58;98135.31;;;22.61;59.86
19751;BME280;4663;49.120;9.730;2023-05-09T07:11:23;98104.66;;;21.74;57.60
19751;BME280;4663;49.120;9.730;2023-05-09T07:13:49;98124.03;;;20.72;60.88
19751;BME280;4663;49.120;9.730;2023-05-09T07:16:14;98138.78;;;21.65;61.02
19751;BME280;4663;49.120;9.730;2023-05-09T07:18:41;98142.28;;;21.35;61.23
19751;BME280;4663;49.120;9.730;2023-05-09T07:21:07;98137.94;;;22.26;61.25
19751;BME280;4663;49.120;9.730;2023-05-09T07:23:32;98093.75;;;22.17;56.78
19751;BME280;4663;49.120;9.730;2023-05-09T07:25:58;98124.25;;;22.80;60.26
19751;BME280;4663;49.120;9.730;2023-05-09T07:28:24;98143.84;;;23.13;61.77
19751;BME280;4663;49.120;9.730;2023-05-09T07:30:50;98106.84;;;22.39;58.31
19751;BME280;4663;49.120;9.730;2023-05-09T07:33:15;98121.13;;;22.41;59.59
19751;BME280;4663;49.120;9.730;2023-05-09T07:35:41;98095.19;;;22.31;57.69
19751;BME280;4663;49.120;9.730;2023-05-09T07:38:06;98121.63;;;22.85;58.99
19751;BME280;4663;49.120;9.730;2023-05-09T07:40:31;98133.97;;;23.24;59.72
19751;BME280;4663;49.120;9.730;2023-05-09T07:43:01;98122.66;;;23.20;58.46
19751;BME280;4663;49.120;9.730;2023-05-09T07:45:26;98091.78;;;21.63;57.21
19751;BME280;4663;49.120;9.730;2023-05-09T07:47:52;98100.59;;;22.86;58.69
19751;BME280;4663;49.120;9.730;2023-05-09T07:50:17;98102.75;;;23.78;58.54
19751;BME280;4663;49.120;9.730;2023-05-09T07:52:42;98073.00;;;23.82;55.12
19751;BME280;4663;49.120;9.730;2023-05-09T07:55:08;98097.97;;;24.66;58.16
19751;BME280;4663;49.120;9.730;2023-05-09T07:57:33;98076.88;;;24.49;54.01
19751;BME280;4663;49.120;9.730;2023-05-09T07:59:59;98090.22;;;24.46;56.69
19751;BME280;4663;49.120;9.730;2023-05-09T08:02:24;98063.66;;;25.03;53.87
19751;BME280;4663;49.120;9.730;2023-05-09T08:04:50;98044.75;;;22.58;54.81
19751;BME280;4663;49.120;9.730;2023-05-09T08:07:15;98067.28;;;20.88;58.46
19751;BME280;4663;49.120;9.730;2023-05-09T08:09:40;98052.66;;;21.69;58.53
19751;BME280;4663;49.120;9.730;2023-05-09T08:12:06;98054.00;;;22.45;57.67
19751;BME280;4663;49.120;9.730;2023-05-09T08:14:31;98041.88;;;22.41;57.13
19751;BME280;4663;49.120;9.730;2023-05-09T08:16:57;98065.94;;;23.86;59.42
19751;BME280;4663;49.120;9.730;2023-05-09T08:19:22;98053.28;;;24.31;57.86
19751;BME280;4663;49.120;9.730;2023-05-09T08:21:50;98011.41;;;23.67;54.46
19751;BME280;4663;49.120;9.730;2023-05-09T08:24:15;98037.38;;;23.23;57.93
19751;BME280;4663;49.120;9.730;2023-05-09T08:26:41;98008.50;;;22.39;55.46
19751;BME280;4663;49.120;9.730;2023-05-09T08:29:06;98032.44;;;22.96;58.56
19751;BME280;4663;49.120;9.730;2023-05-09T08:31:31;98021.97;;;23.46;57.27
19751;BME280;4663;49.120;9.730;2023-05-09T08:33:57;98031.31;;;22.80;57.46
19751;BME280;4663;49.120;9.730;2023-05-09T08:36:22;98026.75;;;22.98;57.22
19751;BME280;4663;49.120;9.730;2023-05-09T08:38:47;98032.22;;;24.54;56.70
19751;BME280;4663;49.120;9.730;2023-05-09T08:41:14;98006.16;;;23.66;55.64
19751;BME280;4663;49.120;9.730;2023-05-09T08:43:39;97972.06;;;24.42;53.02
19751;BME280;4663;49.120;9.730;2023-05-09T08:46:07;97986.75;;;22.44;54.89
19751;BME280;4663;49.120;9.730;2023-05-09T08:48:34;98017.53;;;23.28;59.17
19751;BME280;4663;49.120;9.730;2023-05-09T08:51:03;97998.44;;;24.48;56.60
19751;BME280;4663;49.120;9.730;2023-05-09T08:53:29;98003.31;;;24.24;55.72
19751;BME280;4663;49.120;9.730;2023-05-09T08:55:57;97987.97;;;23.42;55.06
19751;BME280;4663;49.120;9.730;2023-05-09T08:58:23;97975.69;;;24.48;53.11
19751;BME280;4663;49.120;9.730;2023-05-09T09:00:48;97968.25;;;22.99;54.28
19751;BME280;4663;49.120;9.730;2023-05-09T09:03:16;98006.94;;;23.95;57.27
19751;BME280;4663;49.120;9.730;2023-05-09T09:05:43;97987.66;;;24.81;54.55
19751;BME280;4663;49.120;9.730;2023-05-09T09:08:12;97971.66;;;24.73;52.80
19751;BME280;4663;49.120;9.730;2023-05-09T09:10:39;97951.19;;;23.67;51.46
19751;BME280;4663;49.120;9.730;2023-05-09T09:13:07;97963.13;;;23.78;53.09
19751;BME280;4663;49.120;9.730;2023-05-09T09:15:34;97958.34;;;24.42;52.35
19751;BME280;4663;49.120;9.730;2023-05-09T09:18:06;97931.19;;;24.40;50.84
19751;BME280;4663;49.120;9.730;2023-05-09T09:20:34;97914.31;;;21.81;52.76
19751;BME280;4663;49.120;9.730;2023-05-09T09:23:02;97954.81;;;23.56;53.73
19751;BME280;4663;49.120;9.730;2023-05-09T09:25:29;97961.56;;;25.01;54.07
19751;BME280;4663;49.120;9.730;2023-05-09T09:27:55;97896.56;;;24.57;49.92
19751;BME280;4663;49.120;9.730;2023-05-09T09:30:22;97900.28;;;25.17;49.93
19751;BME280;4663;49.120;9.730;2023-05-09T09:32:48;97912.94;;;24.69;52.17
19751;BME280;4663;49.120;9.730;2023-05-09T09:35:13;97883.06;;;24.50;49.80
19751;BME280;4663;49.120;9.730;2023-05-09T09:37:39;97897.22;;;24.19;50.80
19751;BME280;4663;49.120;9.730;2023-05-09T09:40:07;97906.88;;;24.66;52.61
19751;BME280;4663;49.120;9.730;2023-05-09T09:42:43;97895.03;;;25.11;50.73
19751;BME280;4663;49.120;9.730;2023-05-09T09:47:39;97866.56;;;24.00;49.70
19751;BME280;4663;49.120;9.730;2023-05-09T09:52:41;97894.47;;;25.36;51.61
19751;BME280;4663;49.120;9.730;2023-05-09T09:55:07;97904.66;;;25.41;52.16
19751;BME280;4663;49.120;9.730;2023-05-09T09:57:34;97842.44;;;24.91;47.21
19751;BME280;4663;49.120;9.730;2023-05-09T10:00:02;97891.50;;;24.88;51.18
19751;BME280;4663;49.120;9.730;2023-05-09T10:02:27;97859.13;;;24.62;49.12
19751;BME280;4663;49.120;9.730;2023-05-09T10:04:53;97877.25;;;24.91;51.48
19751;BME280;4663;49.120;9.730;2023-05-09T10:07:21;97875.03;;;25.43;50.94
19751;BME280;4663;49.120;9.730;2023-05-09T10:09:47;97889.28;;;24.62;52.89
19751;BME280;4663;49.120;9.730;2023-05-09T10:12:13;97864.81;;;25.05;50.32
19751;BME280;4663;49.120;9.730;2023-05-09T10:14:43;97881.16;;;25.23;52.11
19751;BME280;4663;49.120;9.730;2023-05-09T10:17:12;97890.28;;;25.99;53.38
19751;BME280;4663;49.120;9.730;2023-05-09T10:19:42;97885.22;;;25.80;51.99
19751;BME280;4663;49.120;9.730;2023-05-09T10:22:09;97863.66;;;25.29;52.03
19751;BME280;4663;49.120;9.730;2023-05-09T10:27:12;97829.19;;;25.11;49.87
19751;BME280;4663;49.120;9.730;2023-05-09T10:29:50;97863.25;;;25.86;53.60
19751;BME280;4663;49.120;9.730;2023-05-09T10:32:26;97791.94;;;25.53;47.97
19751;BME280;4663;49.120;9.730;2023-05-09T10:35:00;97835.50;;;25.11;52.72
19751;BME280;4663;49.120;9.730;2023-05-09T10:37:27;97801.09;;;24.71;49.70
19751;BME280;4663;49.120;9.730;2023-05-09T10:39:53;97808.06;;;24.84;50.88
19751;BME280;4663;49.120;9.730;2023-05-09T10:42:19;97812.13;;;24.76;50.67
19751;BME280;4663;49.120;9.730;2023-05-09T10:44:48;97813.81;;;23.19;52.35
19751;BME280;4663;49.120;9.730;2023-05-09T10:47:14;97820.91;;;24.28;52.99
19751;BME280;4663;49.120;9.730;2023-05-09T10:49:39;97800.00;;;23.99;52.23
19751;BME280;4663;49.120;9.730;2023-05-09T10:52:05;97798.69;;;24.07;52.51
19751;BME280;4663;49.120;9.730;2023-05-09T10:54:31;97799.44;;;24.70;51.78
19751;BME280;4663;49.120;9.730;2023-05-09T10:56:59;97805.84;;;24.81;53.31
19751;BME280;4663;49.120;9.730;2023-05-09T10:59:33;97792.91;;;24.26;53.00
19751;BME280;4663;49.120;9.730;2023-05-09T11:02:02;97800.31;;;24.25;54.09
19751;BME280;4663;49.120;9.730;2023-05-09T11:04:29;97785.56;;;23.87;53.99
19751;BME280;4663;49.120;9.730;2023-05-09T11:06:58;97777.63;;;24.80;52.68
19751;BME280;4663;49.120;9.730;2023-05-09T11:09:37;97745.78;;;24.51;49.74
19751;BME280;4663;49.120;9.730;2023-05-09T11:17:05;97736.16;;;23.99;50.92
19751;BME280;4663;49.120;9.730;2023-05-09T11:22:25;97738.63;;;24.23;52.00
19751;BME280;4663;49.120;9.730;2023-05-09T11:30:13;97739.00;;;25.20;52.35
19751;BME280;4663;49.120;9.730;2023-05-09T11:32:59;97711.00;;;24.85;50.83
19751;BME280;4663;49.120;9.730;2023-05-09T11:35:26;97749.69;;;24.83;55.07
19751;BME280;4663;49.120;9.730;2023-05-09T11:38:03;97733.38;;;24.99;53.36
19751;BME280;4663;49.120;9.730;2023-05-09T11:40:30;97714.44;;;24.70;52.79
19751;BME280;4663;49.120;9.730;2023-05-09T11:42:57;97701.00;;;24.68;51.82
19751;BME280;4663;49.120;9.730;2023-05-09T11:45:27;97713.69;;;24.74;52.69
19751;BME280;4663;49.120;9.730;2023-05-09T11:47:53;97702.38;;;25.03;53.23
19751;BME280;4663;49.120;9.730;2023-05-09T11:50:19;97690.81;;;25.34;51.85
19751;BME280;4663;49.120;9.730;2023-05-09T11:52:46;97683.97;;;25.37;51.32
19751;BME280;4663;49.120;9.730;2023-05-09T11:55:14;97681.78;;;24.63;51.30
19751;BME280;4663;49.120;9.730;2023-05-09T11:57:47;97672.53;;;23.92;51.80
19751;BME280;4663;49.120;9.730;2023-05-09T12:00:17;97688.63;;;23.88;54.05
19751;BME280;4663;49.120;9.730;2023-05-09T12:02:44;97679.97;;;24.46;53.11
19751;BME280;4663;49.120;9.730;2023-05-09T12:05:12;97675.59;;;22.77;53.99
19751;BME280;4663;49.120;9.730;2023-05-09T12:07:38;97671.94;;;22.88;54.99
19751;BME280;4663;49.120;9.730;2023-05-09T12:10:08;97670.94;;;23.51;53.96
19751;BME280;4663;49.120;9.730;2023-05-09T12:12:35;97653.56;;;23.23;53.51
19751;BME280;4663;49.120;9.730;2023-05-09T12:15:06;97695.31;;;24.20;56.15
19751;BME280;4663;49.120;9.730;2023-05-09T12:17:32;97669.34;;;23.55;55.78
19751;BME280;4663;49.120;9.730;2023-05-09T12:19:59;97640.59;;;22.96;54.23
19751;BME280;4663;49.120;9.730;2023-05-09T12:22:25;97632.28;;;22.85;53.57
19751;BME280;4663;49.120;9.730;2023-05-09T12:24:51;97646.53;;;23.27;54.27
19751;BME280;4663;49.120;9.730;2023-05-09T12:27:18;97636.50;;;23.55;54.02
19751;BME280;4663;49.120;9.730;2023-05-09T12:29:44;97648.75;;;24.52;54.98
19751;BME280;4663;49.120;9.730;2023-05-09T12:32:13;97635.84;;;24.48;54.02
19751;BME280;4663;49.120;9.730;2023-05-09T12:34:43;97646.81;;;24.48;55.29
19751;BME280;4663;49.120;9.730;2023-05-09T12:37:19;97616.88;;;24.08;53.35
19751;BME280;4663;49.120;9.730;2023-05-09T12:40:02;97641.41;;;23.75;56.64
19751;BME280;4663;49.120;9.730;2023-05-09T12:42:33;97622.50;;;23.74;55.63
19751;BME280;4663;49.120;9.730;2023-05-09T12:45:00;97599.28;;;23.54;53.94
19751;BME280;4663;49.120;9.730;2023-05-09T12:47:30;97622.66;;;24.12;55.37
19751;BME280;4663;49.120;9.730;2023-05-09T12:50:00;97610.25;;;24.04;54.29
19751;BME280;4663;49.120;9.730;2023-05-09T12:52:33;97601.78;;;23.83;53.65
19751;BME280;4663;49.120;9.730;2023-05-09T12:55:08;97593.56;;;24.38;54.32
19751;BME280;4663;49.120;9.730;2023-05-09T12:57:34;97581.91;;;24.21;52.46
19751;BME280;4663;49.120;9.730;2023-05-09T13:00:01;97576.47;;;24.59;52.37
19751;BME280;4663;49.120;9.730;2023-05-09T13:02:33;97582.66;;;24.11;53.66
19751;BME280;4663;49.120;9.730;2023-05-09T13:05:10;97590.56;;;24.40;53.85
19751;BME280;4663;49.120;9.730;2023-05-09T13:07:43;97608.47;;;23.93;55.45
19751;BME280;4663;49.120;9.730;2023-05-09T13:10:22;97572.59;;;23.22;53.41
19751;BME280;4663;49.120;9.730;2023-05-09T13:12:51;97566.03;;;22.61;55.19
19751;BME280;4663;49.120;9.730;2023-05-09T13:15:20;97582.78;;;23.27;56.07
19751;BME280;4663;49.120;9.730;2023-05-09T13:17:50;97565.75;;;23.42;54.57
19751;BME280;4663;49.120;9.730;2023-05-09T13:20:16;97565.19;;;23.40;54.54
19751;BME280;4663;49.120;9.730;2023-05-09T13:22:44;97573.28;;;23.29;55.56
19751;BME280;4663;49.120;9.730;2023-05-09T13:25:10;97560.31;;;23.24;54.84
19751;BME280;4663;49.120;9.730;2023-05-09T13:27:36;97561.50;;;23.29;55.17
19751;BME280;4663;49.120;9.730;2023-05-09T13:30:02;97550.81;;;23.77;54.57
19751;BME280;4663;49.120;9.730;2023-05-09T13:32:28;97532.75;;;23.76;54.24
19751;BME280;4663;49.120;9.730;2023-05-09T13:34:53;97556.16;;;24.22;55.37
19751;BME280;4663;49.120;9.730;2023-05-09T13:37:19;97549.84;;;23.88;56.57
19751;BME280;4663;49.120;9.730;2023-05-09T13:39:45;97547.59;;;23.85;56.56